sensor_id;sensor_type;location;lat;lon;timestamp;temperature;humidity
70336;SHT31;57756;47.408;18.940;2023-03-30T00:02:22;5.55;84.77
70336;SHT31;57756;47.408;18.940;2023-03-30T00:04:49;5.58;85.14
70336;SHT31;57756;47.408;18.940;2023-03-30T00:07:14;5.55;84.14
70336;SHT31;57756;47.408;18.940;2023-03-30T00:09:40;5.58;84.67
70336;SHT31;57756;47.408;18.940;2023-03-30T00:12:09;5.60;84.80
70336;SHT31;57756;47.408;18.940;2023-03-30T00:14:35;5.61;84.36
70336;SHT31;57756;47.408;18.940;2023-03-30T00:17:08;5.65;84.10
70336;SHT31;57756;47.408;18.940;2023-03-30T00:19:33;5.65;84.40
70336;SHT31;57756;47.408;18.940;2023-03-30T00:22:04;5.65;84.72
70336;SHT31;57756;47.408;18.940;2023-03-30T00:24:30;5.68;84.40
70336;SHT31;57756;47.408;18.940;2023-03-30T00:26:56;5.68;84.37
70336;SHT31;57756;47.408;18.940;2023-03-30T00:29:21;5.70;83.54
70336;SHT31;57756;47.408;18.940;2023-03-30T00:31:47;5.73;84.03
70336;SHT31;57756;47.408;18.940;2023-03-30T00:34:12;5.73;83.90
70336;SHT31;57756;47.408;18.940;2023-03-30T00:36:38;5.75;84.33
70336;SHT31;57756;47.408;18.940;2023-03-30T00:39:04;5.77;84.77
70336;SHT31;57756;47.408;18.940;2023-03-30T00:41:34;5.74;83.39
70336;SHT31;57756;47.408;18.940;2023-03-30T00:46:31;5.74;84.69
70336;SHT31;57756;47.408;18.940;2023-03-30T00:49:02;5.78;84.65
70336;SHT31;57756;47.408;18.940;2023-03-30T00:51:31;5.75;83.88
70336;SHT31;57756;47.408;18.940;2023-03-30T00:54:06;5.75;83.47
70336;SHT31;57756;47.408;18.940;2023-03-30T00:56:33;5.75;84.34
70336;SHT31;57756;47.408;18.940;2023-03-30T00:59:00;5.71;83.62
70336;SHT31;57756;47.408;18.940;2023-03-30T01:01:27;5.70;84.09
70336;SHT31;57756;47.408;18.940;2023-03-30T01:03:59;5.71;84.05
70336;SHT31;57756;47.408;18.940;2023-03-30T01:06:26;5.71;83.70
70336;SHT31;57756;47.408;18.940;2023-03-30T01:08:54;5.73;84.73
70336;SHT31;57756;47.408;18.940;2023-03-30T01:11:20;5.75;84.91
70336;SHT31;57756;47.408;18.940;2023-03-30T01:13:49;5.77;85.40
70336;SHT31;57756;47.408;18.940;2023-03-30T01:19:05;5.73;84.85
70336;SHT31;57756;47.408;18.940;2023-03-30T01:22:02;5.74;83.69
70336;SHT31;57756;47.408;18.940;2023-03-30T01:30:09;5.75;85.35
70336;SHT31;57756;47.408;18.940;2023-03-30T01:44:29;5.39;85.14
70336;SHT31;57756;47.408;18.940;2023-03-30T01:47:02;5.36;85.85
70336;SHT31;57756;47.408;18.940;2023-03-30T01:52:06;5.29;85.98
70336;SHT31;57756;47.408;18.940;2023-03-30T01:54:49;5.23;86.71
70336;SHT31;57756;47.408;18.940;2023-03-30T01:57:40;5.22;86.41
70336;SHT31;57756;47.408;18.940;2023-03-30T02:00:06;5.19;86.48
70336;SHT31;57756;47.408;18.940;2023-03-30T02:02:46;5.13;86.51
70336;SHT31;57756;47.408;18.940;2023-03-30T02:05:14;5.09;85.77
70336;SHT31;57756;47.408;18.940;2023-03-30T02:07:44;5.04;86.21
70336;SHT31;57756;47.408;18.940;2023-03-30T02:10:13;5.04;86.50
70336;SHT31;57756;47.408;18.940;2023-03-30T02:12:40;5.04;85.49
70336;SHT31;57756;47.408;18.940;2023-03-30T02:15:08;5.04;85.28
70336;SHT31;57756;47.408;18.940;2023-03-30T02:17:34;5.06;84.85
70336;SHT31;57756;47.408;18.940;2023-03-30T02:20:04;5.05;85.27
70336;SHT31;57756;47.408;18.940;2023-03-30T02:22:33;5.00;85.75
70336;SHT31;57756;47.408;18.940;2023-03-30T02:24:58;5.06;85.99
70336;SHT31;57756;47.408;18.940;2023-03-30T02:27:25;5.02;86.03
70336;SHT31;57756;47.408;18.940;2023-03-30T02:29:52;5.04;85.46
70336;SHT31;57756;47.408;18.940;2023-03-30T02:32:24;5.02;86.10
70336;SHT31;57756;47.408;18.940;2023-03-30T02:46:53;4.99;86.03
70336;SHT31;57756;47.408;18.940;2023-03-30T02:49:52;5.04;85.59
70336;SHT31;57756;47.408;18.940;2023-03-30T02:52:23;4.98;84.98
70336;SHT31;57756;47.408;18.940;2023-03-30T02:54:55;5.00;84.68
70336;SHT31;57756;47.408;18.940;2023-03-30T02:57:46;5.05;85.59
70336;SHT31;57756;47.408;18.940;2023-03-30T03:00:36;5.06;85.68
70336;SHT31;57756;47.408;18.940;2023-03-30T03:03:13;5.05;84.26
70336;SHT31;57756;47.408;18.940;2023-03-30T03:05:39;5.06;84.21
70336;SHT31;57756;47.408;18.940;2023-03-30T03:08:07;5.08;84.35
70336;SHT31;57756;47.408;18.940;2023-03-30T03:10:32;5.08;84.59
70336;SHT31;57756;47.408;18.940;2023-03-30T03:13:00;5.15;83.46
70336;SHT31;57756;47.408;18.940;2023-03-30T03:15:25;5.18;84.21
70336;SHT31;57756;47.408;18.940;2023-03-30T03:17:51;5.18;83.45
70336;SHT31;57756;47.408;18.940;2023-03-30T03:20:16;5.19;84.25
70336;SHT31;57756;47.408;18.940;2023-03-30T03:22:42;5.20;84.55
70336;SHT31;57756;47.408;18.940;2023-03-30T03:25:07;5.23;84.20
70336;SHT31;57756;47.408;18.940;2023-03-30T03:27:34;5.22;83.72
70336;SHT31;57756;47.408;18.940;2023-03-30T03:30:00;5.19;83.64
70336;SHT31;57756;47.408;18.940;2023-03-30T03:32:25;5.19;83.15
70336;SHT31;57756;47.408;18.940;2023-03-30T03:34:51;5.16;83.32
70336;SHT31;57756;47.408;18.940;2023-03-30T03:37:16;5.15;83.58
70336;SHT31;57756;47.408;18.940;2023-03-30T03:39:42;5.11;83.64
70336;SHT31;57756;47.408;18.940;2023-03-30T03:42:07;5.06;83.29
70336;SHT31;57756;47.408;18.940;2023-03-30T03:44:33;4.99;83.65
70336;SHT31;57756;47.408;18.940;2023-03-30T03:46:58;4.96;84.15
70336;SHT31;57756;47.408;18.940;2023-03-30T03:49:24;4.88;83.68
70336;SHT31;57756;47.408;18.940;2023-03-30T03:51:49;4.84;83.59
70336;SHT31;57756;47.408;18.940;2023-03-30T03:54:15;4.78;84.10
70336;SHT31;57756;47.408;18.940;2023-03-30T03:56:41;4.74;84.85
70336;SHT31;57756;47.408;18.940;2023-03-30T03:59:06;4.71;84.09
70336;SHT31;57756;47.408;18.940;2023-03-30T04:01:32;4.68;83.71
70336;SHT31;57756;47.408;18.940;2023-03-30T04:03:57;4.65;83.16
70336;SHT31;57756;47.408;18.940;2023-03-30T04:06:23;4.65;83.19
70336;SHT31;57756;47.408;18.940;2023-03-30T04:08:48;4.68;83.24
70336;SHT31;57756;47.408;18.940;2023-03-30T04:11:14;4.72;82.90
70336;SHT31;57756;47.408;18.940;2023-03-30T04:13:40;4.74;82.56
70336;SHT31;57756;47.408;18.940;2023-03-30T04:16:06;4.72;82.98
70336;SHT31;57756;47.408;18.940;2023-03-30T04:18:33;4.74;82.12
70336;SHT31;57756;47.408;18.940;2023-03-30T04:21:00;4.75;82.02
70336;SHT31;57756;47.408;18.940;2023-03-30T04:23:31;4.72;82.11
70336;SHT31;57756;47.408;18.940;2023-03-30T04:26:03;4.71;82.47
70336;SHT31;57756;47.408;18.940;2023-03-30T04:28:29;4.67;83.47
70336;SHT31;57756;47.408;18.940;2023-03-30T04:31:00;4.68;83.60
70336;SHT31;57756;47.408;18.940;2023-03-30T04:33:26;4.68;82.60
70336;SHT31;57756;47.408;18.940;2023-03-30T04:35:52;4.74;83.89
70336;SHT31;57756;47.408;18.940;2023-03-30T04:38:18;4.72;83.91
70336;SHT31;57756;47.408;18.940;2023-03-30T04:40:50;4.75;84.68
70336;SHT31;57756;47.408;18.940;2023-03-30T04:43:19;4.78;84.86
70336;SHT31;57756;47.408;18.940;2023-03-30T04:45:49;4.84;82.86
70336;SHT31;57756;47.408;18.940;2023-03-30T04:48:15;4.92;81.44
70336;SHT31;57756;47.408;18.940;2023-03-30T04:50:41;4.96;80.97
70336;SHT31;57756;47.408;18.940;2023-03-30T04:53:08;5.00;81.87
70336;SHT31;57756;47.408;18.940;2023-03-30T04:55:34;5.05;81.87
70336;SHT31;57756;47.408;18.940;2023-03-30T04:58:00;5.08;82.21
70336;SHT31;57756;47.408;18.940;2023-03-30T05:00:25;5.25;79.98
70336;SHT31;57756;47.408;18.940;2023-03-30T05:02:52;5.30;79.07
70336;SHT31;57756;47.408;18.940;2023-03-30T05:05:17;5.32;79.49
70336;SHT31;57756;47.408;18.940;2023-03-30T05:07:43;5.39;78.58
70336;SHT31;57756;47.408;18.940;2023-03-30T05:10:08;5.47;78.41
70336;SHT31;57756;47.408;18.940;2023-03-30T05:12:34;5.53;77.02
70336;SHT31;57756;47.408;18.940;2023-03-30T05:14:59;5.53;77.46
70336;SHT31;57756;47.408;18.940;2023-03-30T05:17:25;5.55;77.13
70336;SHT31;57756;47.408;18.940;2023-03-30T05:19:51;5.64;76.83
70336;SHT31;57756;47.408;18.940;2023-03-30T05:22:17;5.65;77.97
70336;SHT31;57756;47.408;18.940;2023-03-30T05:24:43;5.65;76.34
70336;SHT31;57756;47.408;18.940;2023-03-30T05:27:08;5.73;77.08
70336;SHT31;57756;47.408;18.940;2023-03-30T05:29:34;5.77;76.06
70336;SHT31;57756;47.408;18.940;2023-03-30T05:31:59;5.75;75.97
70336;SHT31;57756;47.408;18.940;2023-03-30T05:34:25;5.82;75.46
70336;SHT31;57756;47.408;18.940;2023-03-30T05:36:51;5.88;75.89
70336;SHT31;57756;47.408;18.940;2023-03-30T05:39:17;5.98;74.54
70336;SHT31;57756;47.408;18.940;2023-03-30T05:41:42;6.03;74.56
70336;SHT31;57756;47.408;18.940;2023-03-30T05:44:08;5.99;74.67
70336;SHT31;57756;47.408;18.940;2023-03-30T05:46:33;6.05;74.55
70336;SHT31;57756;47.408;18.940;2023-03-30T05:48:59;6.03;74.59
70336;SHT31;57756;47.408;18.940;2023-03-30T05:51:25;6.05;74.17
70336;SHT31;57756;47.408;18.940;2023-03-30T05:53:51;6.11;74.49
70336;SHT31;57756;47.408;18.940;2023-03-30T05:56:16;6.16;74.55
70336;SHT31;57756;47.408;18.940;2023-03-30T05:58:42;6.23;75.07
70336;SHT31;57756;47.408;18.940;2023-03-30T06:01:07;6.30;74.15
70336;SHT31;57756;47.408;18.940;2023-03-30T06:03:33;6.58;73.53
70336;SHT31;57756;47.408;18.940;2023-03-30T06:05:59;6.84;73.02
70336;SHT31;57756;47.408;18.940;2023-03-30T06:08:25;7.25;70.98
70336;SHT31;57756;47.408;18.940;2023-03-30T06:10:52;7.70;70.51
70336;SHT31;57756;47.408;18.940;2023-03-30T06:13:17;7.67;70.60
70336;SHT31;57756;47.408;18.940;2023-03-30T06:15:47;7.59;70.11
70336;SHT31;57756;47.408;18.940;2023-03-30T06:18:12;7.57;70.32
70336;SHT31;57756;47.408;18.940;2023-03-30T06:20:38;7.69;70.79
70336;SHT31;57756;47.408;18.940;2023-03-30T06:23:03;7.63;71.06
70336;SHT31;57756;47.408;18.940;2023-03-30T06:25:29;7.77;70.53
70336;SHT31;57756;47.408;18.940;2023-03-30T06:27:55;7.63;71.20
70336;SHT31;57756;47.408;18.940;2023-03-30T06:30:20;7.62;71.68
70336;SHT31;57756;47.408;18.940;2023-03-30T06:32:46;7.66;71.78
70336;SHT31;57756;47.408;18.940;2023-03-30T06:35:12;7.84;71.73
70336;SHT31;57756;47.408;18.940;2023-03-30T06:37:38;7.83;70.93
70336;SHT31;57756;47.408;18.940;2023-03-30T06:40:03;7.92;71.11
70336;SHT31;57756;47.408;18.940;2023-03-30T06:42:42;8.01;70.92
70336;SHT31;57756;47.408;18.940;2023-03-30T06:45:12;8.06;72.36
70336;SHT31;57756;47.408;18.940;2023-03-30T06:47:38;8.21;71.26
70336;SHT31;57756;47.408;18.940;2023-03-30T06:50:05;8.21;71.53
70336;SHT31;57756;47.408;18.940;2023-03-30T06:52:35;8.36;72.20
70336;SHT31;57756;47.408;18.940;2023-03-30T06:55:01;8.46;71.72
70336;SHT31;57756;47.408;18.940;2023-03-30T06:57:26;8.38;70.78
70336;SHT31;57756;47.408;18.940;2023-03-30T06:59:52;8.40;70.94
70336;SHT31;57756;47.408;18.940;2023-03-30T07:02:18;8.39;70.78
70336;SHT31;57756;47.408;18.940;2023-03-30T07:04:43;8.39;70.76
70336;SHT31;57756;47.408;18.940;2023-03-30T07:07:11;8.35;71.24
70336;SHT31;57756;47.408;18.940;2023-03-30T07:09:37;8.31;71.36
70336;SHT31;57756;47.408;18.940;2023-03-30T07:12:02;8.29;70.92
70336;SHT31;57756;47.408;18.940;2023-03-30T07:14:28;8.24;71.73
70336;SHT31;57756;47.408;18.940;2023-03-30T07:16:53;8.29;72.29
70336;SHT31;57756;47.408;18.940;2023-03-30T07:19:19;8.29;71.70
70336;SHT31;57756;47.408;18.940;2023-03-30T07:21:44;8.38;72.07
70336;SHT31;57756;47.408;18.940;2023-03-30T07:24:10;8.48;71.45
70336;SHT31;57756;47.408;18.940;2023-03-30T07:26:35;8.45;72.38
70336;SHT31;57756;47.408;18.940;2023-03-30T07:29:01;8.63;71.89
70336;SHT31;57756;47.408;18.940;2023-03-30T07:31:27;8.70;71.34
70336;SHT31;57756;47.408;18.940;2023-03-30T07:33:52;8.80;70.95
70336;SHT31;57756;47.408;18.940;2023-03-30T07:36:18;8.96;72.24
70336;SHT31;57756;47.408;18.940;2023-03-30T07:38:44;9.07;71.07
70336;SHT31;57756;47.408;18.940;2023-03-30T07:41:12;9.19;70.18
70336;SHT31;57756;47.408;18.940;2023-03-30T07:43:38;9.31;70.77
70336;SHT31;57756;47.408;18.940;2023-03-30T07:46:09;9.62;69.64
70336;SHT31;57756;47.408;18.940;2023-03-30T07:48:36;9.87;69.24
70336;SHT31;57756;47.408;18.940;2023-03-30T07:51:08;10.20;69.45
70336;SHT31;57756;47.408;18.940;2023-03-30T07:53:35;10.30;69.13
70336;SHT31;57756;47.408;18.940;2023-03-30T07:56:01;10.31;68.72
70336;SHT31;57756;47.408;18.940;2023-03-30T07:58:26;10.34;70.34
70336;SHT31;57756;47.408;18.940;2023-03-30T08:00:53;10.35;68.16
70336;SHT31;57756;47.408;18.940;2023-03-30T08:03:20;10.44;68.51
70336;SHT31;57756;47.408;18.940;2023-03-30T08:05:57;10.48;69.12
70336;SHT31;57756;47.408;18.940;2023-03-30T08:08:25;10.68;68.59
70336;SHT31;57756;47.408;18.940;2023-03-30T08:10:51;11.06;67.78
70336;SHT31;57756;47.408;18.940;2023-03-30T08:13:16;11.71;66.84
70336;SHT31;57756;47.408;18.940;2023-03-30T08:15:42;11.65;65.44
70336;SHT31;57756;47.408;18.940;2023-03-30T08:18:07;11.35;66.00
70336;SHT31;57756;47.408;18.940;2023-03-30T08:20:35;11.38;67.93
70336;SHT31;57756;47.408;18.940;2023-03-30T08:23:02;11.34;67.22
70336;SHT31;57756;47.408;18.940;2023-03-30T08:25:27;11.39;66.30
70336;SHT31;57756;47.408;18.940;2023-03-30T08:27:53;11.48;66.71
70336;SHT31;57756;47.408;18.940;2023-03-30T08:30:18;11.18;66.54
70336;SHT31;57756;47.408;18.940;2023-03-30T08:32:44;11.27;66.24
70336;SHT31;57756;47.408;18.940;2023-03-30T08:35:10;11.21;66.91
70336;SHT31;57756;47.408;18.940;2023-03-30T08:37:37;11.10;67.34
70336;SHT31;57756;47.408;18.940;2023-03-30T08:40:03;11.38;67.16
70336;SHT31;57756;47.408;18.940;2023-03-30T08:43:02;11.54;66.40
70336;SHT31;57756;47.408;18.940;2023-03-30T08:45:39;11.66;65.71
70336;SHT31;57756;47.408;18.940;2023-03-30T08:48:14;11.72;66.38
70336;SHT31;57756;47.408;18.940;2023-03-30T08:50:42;11.83;65.43
70336;SHT31;57756;47.408;18.940;2023-03-30T08:53:11;11.92;65.77
70336;SHT31;57756;47.408;18.940;2023-03-30T08:55:49;11.89;65.67
70336;SHT31;57756;47.408;18.940;2023-03-30T09:03:49;12.26;65.83
70336;SHT31;57756;47.408;18.940;2023-03-30T09:08:49;12.44;64.38
70336;SHT31;57756;47.408;18.940;2023-03-30T09:11:23;12.51;65.78
70336;SHT31;57756;47.408;18.940;2023-03-30T09:13:54;12.97;63.48
70336;SHT31;57756;47.408;18.940;2023-03-30T09:18:54;13.74;61.34
70336;SHT31;57756;47.408;18.940;2023-03-30T09:21:23;13.72;62.09
70336;SHT31;57756;47.408;18.940;2023-03-30T09:23:56;13.50;62.26
70336;SHT31;57756;47.408;18.940;2023-03-30T09:26:28;13.47;61.38
70336;SHT31;57756;47.408;18.940;2023-03-30T09:31:47;13.64;61.60
70336;SHT31;57756;47.408;18.940;2023-03-30T09:39:25;13.22;62.45
70336;SHT31;57756;47.408;18.940;2023-03-30T09:45:16;13.19;65.47
70336;SHT31;57756;47.408;18.940;2023-03-30T09:47:42;13.33;62.76
70336;SHT31;57756;47.408;18.940;2023-03-30T09:50:10;13.32;63.45
70336;SHT31;57756;47.408;18.940;2023-03-30T09:52:40;13.34;64.21
70336;SHT31;57756;47.408;18.940;2023-03-30T09:57:50;13.16;64.89
70336;SHT31;57756;47.408;18.940;2023-03-30T10:00:26;13.27;64.57
70336;SHT31;57756;47.408;18.940;2023-03-30T10:02:57;13.42;64.98
70336;SHT31;57756;47.408;18.940;2023-03-30T10:05:23;13.50;64.01
70336;SHT31;57756;47.408;18.940;2023-03-30T10:07:54;13.60;63.20
70336;SHT31;57756;47.408;18.940;2023-03-30T10:10:38;13.57;63.76
70336;SHT31;57756;47.408;18.940;2023-03-30T10:13:13;13.57;64.08
70336;SHT31;57756;47.408;18.940;2023-03-30T10:15:42;13.67;64.83
70336;SHT31;57756;47.408;18.940;2023-03-30T10:18:51;13.88;63.81
70336;SHT31;57756;47.408;18.940;2023-03-30T10:21:17;14.06;64.29
70336;SHT31;57756;47.408;18.940;2023-03-30T10:23:45;14.19;62.03
70336;SHT31;57756;47.408;18.940;2023-03-30T10:26:13;14.15;62.28
70336;SHT31;57756;47.408;18.940;2023-03-30T10:29:00;14.28;61.69
70336;SHT31;57756;47.408;18.940;2023-03-30T10:31:27;14.19;62.57
70336;SHT31;57756;47.408;18.940;2023-03-30T10:33:58;14.28;62.49
70336;SHT31;57756;47.408;18.940;2023-03-30T10:36:32;14.37;62.37
70336;SHT31;57756;47.408;18.940;2023-03-30T10:39:14;14.81;61.69
70336;SHT31;57756;47.408;18.940;2023-03-30T10:41:42;15.40;60.54
70336;SHT31;57756;47.408;18.940;2023-03-30T10:44:31;15.38;59.64
70336;SHT31;57756;47.408;18.940;2023-03-30T10:50:15;15.66;59.06
70336;SHT31;57756;47.408;18.940;2023-03-30T10:53:02;15.98;59.45
70336;SHT31;57756;47.408;18.940;2023-03-30T10:58:18;15.76;58.97
70336;SHT31;57756;47.408;18.940;2023-03-30T11:00:52;15.63;58.55
70336;SHT31;57756;47.408;18.940;2023-03-30T11:03:25;15.93;60.51
70336;SHT31;57756;47.408;18.940;2023-03-30T11:05:59;16.38;58.35
70336;SHT31;57756;47.408;18.940;2023-03-30T11:08:29;16.25;58.17
70336;SHT31;57756;47.408;18.940;2023-03-30T11:10:58;15.84;59.34
70336;SHT31;57756;47.408;18.940;2023-03-30T11:13:40;15.73;60.07
70336;SHT31;57756;47.408;18.940;2023-03-30T11:16:13;15.59;59.68
70336;SHT31;57756;47.408;18.940;2023-03-30T11:18:59;14.91;60.76
70336;SHT31;57756;47.408;18.940;2023-03-30T11:24:27;15.06;61.90
70336;SHT31;57756;47.408;18.940;2023-03-30T11:32:33;15.56;60.79
70336;SHT31;57756;47.408;18.940;2023-03-30T11:38:10;15.43;61.94
70336;SHT31;57756;47.408;18.940;2023-03-30T11:41:11;15.61;61.53
70336;SHT31;57756;47.408;18.940;2023-03-30T11:43:29;15.84;60.60
70336;SHT31;57756;47.408;18.940;2023-03-30T11:46:41;15.87;61.25
70336;SHT31;57756;47.408;18.940;2023-03-30T11:49:31;16.08;61.43
70336;SHT31;57756;47.408;18.940;2023-03-30T11:52:20;16.11;62.95
70336;SHT31;57756;47.408;18.940;2023-03-30T11:57:33;16.35;60.78
70336;SHT31;57756;47.408;18.940;2023-03-30T12:00:16;16.42;61.75
70336;SHT31;57756;47.408;18.940;2023-03-30T12:05:41;16.63;60.88
70336;SHT31;57756;47.408;18.940;2023-03-30T12:11:01;16.62;61.81
70336;SHT31;57756;47.408;18.940;2023-03-30T12:13:31;16.76;62.15
70336;SHT31;57756;47.408;18.940;2023-03-30T12:16:10;16.76;61.80
70336;SHT31;57756;47.408;18.940;2023-03-30T12:24:19;16.90;59.61
70336;SHT31;57756;47.408;18.940;2023-03-30T12:26:47;17.10;61.73
70336;SHT31;57756;47.408;18.940;2023-03-30T12:29:15;17.14;58.65
70336;SHT31;57756;47.408;18.940;2023-03-30T12:34:39;16.99;59.97
70336;SHT31;57756;47.408;18.940;2023-03-30T12:37:33;16.94;60.21
70336;SHT31;57756;47.408;18.940;2023-03-30T12:40:13;16.99;59.88
70336;SHT31;57756;47.408;18.940;2023-03-30T12:42:59;16.77;59.33
70336;SHT31;57756;47.408;18.940;2023-03-30T12:45:36;16.73;61.07
70336;SHT31;57756;47.408;18.940;2023-03-30T12:54:02;16.66;60.37
70336;SHT31;57756;47.408;18.940;2023-03-30T13:02:37;16.83;59.91
70336;SHT31;57756;47.408;18.940;2023-03-30T13:05:36;16.59;61.03
70336;SHT31;57756;47.408;18.940;2023-03-30T13:08:14;16.74;60.58
70336;SHT31;57756;47.408;18.940;2023-03-30T13:10:43;16.81;60.55
70336;SHT31;57756;47.408;18.940;2023-03-30T13:13:43;16.67;60.69
70336;SHT31;57756;47.408;18.940;2023-03-30T13:16:08;16.66;60.50
70336;SHT31;57756;47.408;18.940;2023-03-30T13:18:50;16.63;61.07
70336;SHT31;57756;47.408;18.940;2023-03-30T13:21:19;16.55;62.26
70336;SHT31;57756;47.408;18.940;2023-03-30T13:24:00;16.69;61.81
70336;SHT31;57756;47.408;18.940;2023-03-30T13:26:26;16.73;60.67
70336;SHT31;57756;47.408;18.940;2023-03-30T13:29:06;16.62;61.70
70336;SHT31;57756;47.408;18.940;2023-03-30T13:36:37;16.56;62.00
70336;SHT31;57756;47.408;18.940;2023-03-30T13:39:27;16.51;62.72
70336;SHT31;57756;47.408;18.940;2023-03-30T13:42:19;16.55;62.88
70336;SHT31;57756;47.408;18.940;2023-03-30T13:50:18;16.53;63.86
70336;SHT31;57756;47.408;18.940;2023-03-30T13:52:47;16.70;62.24
70336;SHT31;57756;47.408;18.940;2023-03-30T13:57:43;16.66;63.32
70336;SHT31;57756;47.408;18.940;2023-03-30T14:00:36;16.59;63.66
70336;SHT31;57756;47.408;18.940;2023-03-30T14:03:58;16.74;62.08
70336;SHT31;57756;47.408;18.940;2023-03-30T14:06:19;16.60;62.27
70336;SHT31;57756;47.408;18.940;2023-03-30T14:09:08;16.63;62.53
70336;SHT31;57756;47.408;18.940;2023-03-30T14:14:05;16.46;62.80
70336;SHT31;57756;47.408;18.940;2023-03-30T14:16:33;16.51;62.74
70336;SHT31;57756;47.408;18.940;2023-03-30T14:19:10;16.51;62.66
70336;SHT31;57756;47.408;18.940;2023-03-30T14:21:41;16.45;62.84
70336;SHT31;57756;47.408;18.940;2023-03-30T14:24:12;16.29;64.20
70336;SHT31;57756;47.408;18.940;2023-03-30T14:26:40;16.21;64.59
70336;SHT31;57756;47.408;18.940;2023-03-30T14:29:13;16.36;63.60
70336;SHT31;57756;47.408;18.940;2023-03-30T14:31:41;16.29;63.82
70336;SHT31;57756;47.408;18.940;2023-03-30T14:34:30;16.36;64.58
70336;SHT31;57756;47.408;18.940;2023-03-30T14:37:05;16.22;64.34
70336;SHT31;57756;47.408;18.940;2023-03-30T14:39:35;16.28;63.75
70336;SHT31;57756;47.408;18.940;2023-03-30T14:44:40;15.87;64.88
70336;SHT31;57756;47.408;18.940;2023-03-30T14:47:06;15.93;65.13
70336;SHT31;57756;47.408;18.940;2023-03-30T14:49:33;15.83;65.27
70336;SHT31;57756;47.408;18.940;2023-03-30T14:52:17;15.84;65.74
70336;SHT31;57756;47.408;18.940;2023-03-30T14:54:44;15.71;66.43
70336;SHT31;57756;47.408;18.940;2023-03-30T14:57:11;15.76;65.71
70336;SHT31;57756;47.408;18.940;2023-03-30T14:59:45;15.73;65.71
70336;SHT31;57756;47.408;18.940;2023-03-30T15:02:18;15.70;66.56
70336;SHT31;57756;47.408;18.940;2023-03-30T15:04:44;15.56;66.24
70336;SHT31;57756;47.408;18.940;2023-03-30T15:07:13;15.53;66.49
70336;SHT31;57756;47.408;18.940;2023-03-30T15:09:40;15.54;67.03
70336;SHT31;57756;47.408;18.940;2023-03-30T15:12:06;15.70;66.11
70336;SHT31;57756;47.408;18.940;2023-03-30T15:14:36;15.63;66.32
70336;SHT31;57756;47.408;18.940;2023-03-30T15:17:12;15.44;66.61
70336;SHT31;57756;47.408;18.940;2023-03-30T15:19:38;15.50;66.50
70336;SHT31;57756;47.408;18.940;2023-03-30T15:22:12;15.36;67.16
70336;SHT31;57756;47.408;18.940;2023-03-30T15:24:42;15.38;67.41
70336;SHT31;57756;47.408;18.940;2023-03-30T15:27:10;15.29;68.10
70336;SHT31;57756;47.408;18.940;2023-03-30T15:29:38;15.29;68.40
70336;SHT31;57756;47.408;18.940;2023-03-30T15:32:11;15.32;67.94
70336;SHT31;57756;47.408;18.940;2023-03-30T15:34:58;15.32;68.42
70336;SHT31;57756;47.408;18.940;2023-03-30T15:37:24;15.26;68.87
70336;SHT31;57756;47.408;18.940;2023-03-30T15:39:49;15.28;69.05
70336;SHT31;57756;47.408;18.940;2023-03-30T15:42:31;15.25;69.68
70336;SHT31;57756;47.408;18.940;2023-03-30T15:45:12;15.21;69.56
70336;SHT31;57756;47.408;18.940;2023-03-30T15:47:38;15.09;69.99
70336;SHT31;57756;47.408;18.940;2023-03-30T15:50:10;15.06;70.14
70336;SHT31;57756;47.408;18.940;2023-03-30T15:52:41;15.04;71.01
70336;SHT31;57756;47.408;18.940;2023-03-30T15:55:16;14.99;71.68
70336;SHT31;57756;47.408;18.940;2023-03-30T15:57:45;14.89;72.18
70336;SHT31;57756;47.408;18.940;2023-03-30T16:00:14;14.85;71.88
70336;SHT31;57756;47.408;18.940;2023-03-30T16:02:47;14.80;74.01
70336;SHT31;57756;47.408;18.940;2023-03-30T16:05:21;14.67;74.47
70336;SHT31;57756;47.408;18.940;2023-03-30T16:07:47;14.59;77.16
70336;SHT31;57756;47.408;18.940;2023-03-30T16:10:18;14.51;78.27
70336;SHT31;57756;47.408;18.940;2023-03-30T16:12:52;14.43;79.01
70336;SHT31;57756;47.408;18.940;2023-03-30T16:15:21;14.36;77.99
70336;SHT31;57756;47.408;18.940;2023-03-30T16:17:48;14.28;79.90
70336;SHT31;57756;47.408;18.940;2023-03-30T16:20:18;14.10;81.33
70336;SHT31;57756;47.408;18.940;2023-03-30T16:22:44;13.94;83.00
70336;SHT31;57756;47.408;18.940;2023-03-30T16:25:12;13.91;83.05
70336;SHT31;57756;47.408;18.940;2023-03-30T16:27:38;13.88;83.45
70336;SHT31;57756;47.408;18.940;2023-03-30T16:30:28;13.79;85.45
70336;SHT31;57756;47.408;18.940;2023-03-30T16:32:54;13.77;84.97
70336;SHT31;57756;47.408;18.940;2023-03-30T16:35:20;13.58;85.50
70336;SHT31;57756;47.408;18.940;2023-03-30T16:37:47;13.58;85.18
70336;SHT31;57756;47.408;18.940;2023-03-30T16:43:00;13.50;86.62
70336;SHT31;57756;47.408;18.940;2023-03-30T16:45:25;13.43;87.83
70336;SHT31;57756;47.408;18.940;2023-03-30T16:47:51;13.32;88.40
70336;SHT31;57756;47.408;18.940;2023-03-30T16:50:26;13.27;89.30
70336;SHT31;57756;47.408;18.940;2023-03-30T16:52:54;13.17;89.89
70336;SHT31;57756;47.408;18.940;2023-03-30T16:55:20;13.09;90.06
70336;SHT31;57756;47.408;18.940;2023-03-30T16:57:45;13.06;89.93
70336;SHT31;57756;47.408;18.940;2023-03-30T17:00:24;13.03;89.93
70336;SHT31;57756;47.408;18.940;2023-03-30T17:02:51;12.97;90.52
70336;SHT31;57756;47.408;18.940;2023-03-30T17:05:16;12.95;90.29
70336;SHT31;57756;47.408;18.940;2023-03-30T17:07:42;12.95;90.12
70336;SHT31;57756;47.408;18.940;2023-03-30T17:12:45;12.81;90.41
70336;SHT31;57756;47.408;18.940;2023-03-30T17:15:11;12.75;90.45
70336;SHT31;57756;47.408;18.940;2023-03-30T17:17:36;12.72;90.34
70336;SHT31;57756;47.408;18.940;2023-03-30T17:22:50;12.67;90.35
70336;SHT31;57756;47.408;18.940;2023-03-30T17:25:17;12.65;90.24
70336;SHT31;57756;47.408;18.940;2023-03-30T17:27:46;12.58;90.24
70336;SHT31;57756;47.408;18.940;2023-03-30T17:30:25;12.54;90.37
70336;SHT31;57756;47.408;18.940;2023-03-30T17:32:51;12.48;90.57
70336;SHT31;57756;47.408;18.940;2023-03-30T17:35:19;12.45;90.69
70336;SHT31;57756;47.408;18.940;2023-03-30T17:37:45;12.41;90.54
70336;SHT31;57756;47.408;18.940;2023-03-30T17:42:41;12.41;90.44
70336;SHT31;57756;47.408;18.940;2023-03-30T17:45:08;12.38;90.90
70336;SHT31;57756;47.408;18.940;2023-03-30T17:47:33;12.33;91.40
70336;SHT31;57756;47.408;18.940;2023-03-30T17:49:58;12.26;92.44
70336;SHT31;57756;47.408;18.940;2023-03-30T17:52:24;12.24;92.58
70336;SHT31;57756;47.408;18.940;2023-03-30T17:54:55;12.16;92.61
70336;SHT31;57756;47.408;18.940;2023-03-30T17:57:21;12.12;92.93
70336;SHT31;57756;47.408;18.940;2023-03-30T17:59:47;12.04;92.61